AIRPORT ID: 8G2

DATE: 2021-12-09 ZULU TIME: 0.01 LOCAL TIME: 19.01


METAR K8G2 090001Z AUTO 32008KT 10SM M04/M07 A2999

ALTIMETER: A2999 Q1016

DENSITY ALT: 0 Ft

WIND DIRECT: 310

WIND SPEED: 8 Gust

WIND CONDITIONS:

VISIBILTY: 10SM 9999M

TEMPERATURE: 24 F -4 C

DEW POINT: 19 F -7 C

HUMID: 81%

LCL: 500-1,000 feet

RADIO CHECK: 0

ADVISARIES: 0

GREETINGS: 0

CONVERSATIONS: 0